Time;durP1;ratioP1;P1;durP2;ratioP2;P2;SDS_P1;SDS_P2;PMS_P1;PMS_P2;Temp;Humidity;BMP_temperature;BMP_pressure;BME280_temperature;BME280_humidity;BME280_pressure;Samples;Min_cycle;Max_cycle;Signal;HPM_P1;HPM_P2
2022/12/24 00:01:08;;;;;;;;;8.00;7.00;;;;;12.56;76.08;100665.22;5015948;28;45503;-56
2022/12/24 00:03:35;;;;;;;;;13.67;4.00;;;;;12.56;75.97;100665.22;5015614;28;45326;-58
2022/12/24 00:06:09;;;;;;;;;6.00;3.00;;;;;12.57;76.27;100670.44;5015369;28;45371;-58
2022/12/24 00:08:35;;;;;;;;;7.00;4.00;;;;;12.56;76.15;100663.41;4998338;28;45354;-58
2022/12/24 00:11:00;;;;;;;;;11.00;4.67;;;;;12.56;76.04;100660.72;5004934;28;45326;-57
2022/12/24 00:13:26;;;;;;;;;8.33;6.00;;;;;12.50;76.25;100666.47;5015598;28;46062;-58
2022/12/24 00:15:51;;;;;;;;;12.67;8.67;;;;;12.46;76.20;100654.25;5015200;28;45366;-58
2022/12/24 00:18:17;;;;;;;;;2.00;1.00;;;;;12.44;76.27;100647.31;5015567;28;45556;-58
2022/12/24 00:20:46;;;;;;;;;6.67;5.33;;;;;12.43;76.64;100645.59;5016104;28;45412;-58
2022/12/24 00:23:12;;;;;;;;;8.00;3.33;;;;;12.47;76.31;100649.78;5017550;28;47425;-58
2022/12/24 00:25:37;;;;;;;;;6.67;4.00;;;;;12.44;76.69;100671.31;5018649;28;45250;-57
2022/12/24 00:28:03;;;;;;;;;6.33;6.33;;;;;12.40;76.54;100658.16;5018813;28;45181;-58
2022/12/24 00:30:28;;;;;;;;;3.67;2.00;;;;;12.40;76.49;100658.16;5019182;28;45827;-58
2022/12/24 00:32:53;;;;;;;;;8.33;4.33;;;;;12.37;76.50;100666.38;5000600;28;47156;-58
2022/12/24 00:35:19;;;;;;;;;8.00;5.67;;;;;12.39;76.67;100668.94;5019053;28;45270;-58
2022/12/24 00:37:49;;;;;;;;;6.33;4.00;;;;;12.38;77.08;100667.22;5018996;28;45291;-57
2022/12/24 00:40:16;;;;;;;;;8.33;7.00;;;;;12.37;76.93;100674.38;5018961;28;45296;-58
2022/12/24 00:42:41;;;;;;;;;8.33;4.33;;;;;12.35;76.40;100672.72;5018450;28;45285;-58
2022/12/24 00:45:08;;;;;;;;;10.67;4.67;;;;;12.31;76.83;100679.22;5001132;28;45348;-58
2022/12/24 00:47:33;;;;;;;;;13.67;5.33;;;;;12.34;76.91;100693.22;5018671;28;45283;-58
2022/12/24 00:49:58;;;;;;;;;7.67;3.67;;;;;12.31;77.25;100684.53;5018742;28;45252;-59
2022/12/24 00:52:24;;;;;;;;;10.00;6.67;;;;;12.28;76.82;100684.75;5018627;28;46243;-58
2022/12/24 00:54:49;;;;;;;;;12.00;5.33;;;;;12.29;76.97;100687.31;5018817;28;45239;-57
2022/12/24 00:57:14;;;;;;;;;4.00;4.00;;;;;12.29;76.74;100689.13;5018590;28;45226;-57
2022/12/24 00:59:40;;;;;;;;;4.00;4.00;;;;;12.29;76.85;100695.31;5019319;28;45829;-57
2022/12/24 01:02:05;;;;;;;;;6.00;3.67;;;;;12.23;76.73;100708.16;5018545;28;51212;-57
2022/12/24 01:07:14;;;;;;;;;6.33;3.33;;;;;12.19;76.78;100698.63;5018376;28;45285;-57
2022/12/24 01:09:39;;;;;;;;;14.00;4.33;;;;;12.27;77.56;100718.56;5018490;28;45568;-57
2022/12/24 01:12:05;;;;;;;;;4.00;4.00;;;;;12.27;77.21;100715.88;5037375;28;45278;-57
2022/12/24 01:14:30;;;;;;;;;7.67;3.33;;;;;12.26;77.51;100694.66;5037919;28;45331;-57
2022/12/24 01:16:55;;;;;;;;;9.67;4.67;;;;;12.26;77.59;100695.50;5037853;28;48984;-57
2022/12/24 01:19:21;;;;;;;;;7.67;3.67;;;;;12.25;77.58;100699.13;5020611;28;45679;-58
2022/12/24 01:21:46;;;;;;;;;7.33;3.00;;;;;12.26;77.81;100695.50;5036534;28;57772;-58
2022/12/24 01:24:15;;;;;;;;;8.33;3.00;;;;;12.22;77.60;100682.44;5038032;28;45762;-58
2022/12/24 01:26:42;;;;;;;;;9.00;3.33;;;;;12.18;77.69;100671.13;5039071;28;45320;-58
2022/12/24 01:29:07;;;;;;;;;7.33;3.00;;;;;12.25;78.01;100693.78;5038914;28;45396;-57
2022/12/24 01:31:33;;;;;;;;;5.00;3.67;;;;;12.25;77.99;100701.78;5038310;28;45468;-58
2022/12/24 01:33:59;;;;;;;;;5.67;3.00;;;;;12.25;78.01;100712.47;5038111;28;45225;-56
2022/12/24 01:36:24;;;;;;;;;8.00;4.00;;;;;12.25;77.70;100717.78;5038222;28;45356;-58
2022/12/24 01:38:49;;;;;;;;;8.00;4.00;;;;;12.27;78.15;100710.56;5020978;28;45294;-58
2022/12/24 01:44:40;;;;;;;;;9.00;2.33;;;;;12.23;78.31;100709.00;5037781;28;45443;-57
2022/12/24 01:47:13;;;;;;;;;9.00;6.00;;;;;12.24;78.29;100716.09;4994819;28;45311;-58
2022/12/24 01:49:43;;;;;;;;;8.33;2.67;;;;;12.16;78.10;100699.69;5020101;28;45467;-57
2022/12/24 01:52:15;;;;;;;;;6.67;4.00;;;;;12.21;78.18;100721.56;5019953;28;46439;-58
2022/12/24 01:54:46;;;;;;;;;10.00;4.67;;;;;12.24;78.63;100716.09;5019479;28;45349;-58
2022/12/24 01:57:29;;;;;;;;;8.33;4.00;;;;;12.23;78.34;100729.47;5037527;28;45407;-57
2022/12/24 01:59:59;;;;;;;;;9.67;7.00;;;;;12.23;78.90;100735.66;5037681;28;45524;-58
2022/12/24 02:02:26;;;;;;;;;4.67;3.67;;;;;12.21;78.40;100728.72;5037133;28;45257;-58
2022/12/24 02:05:02;;;;;;;;;6.67;4.00;;;;;12.24;78.70;100740.09;5037047;28;45371;-58
2022/12/24 02:07:27;;;;;;;;;6.33;4.00;;;;;12.24;78.91;100740.09;5019183;28;45246;-56
2022/12/24 02:09:56;;;;;;;;;8.00;4.00;;;;;12.20;78.51;100738.53;5036021;28;45502;-58
2022/12/24 02:12:23;;;;;;;;;10.33;7.67;;;;;12.15;78.50;100748.63;5017198;28;45463;-57
2022/12/24 02:14:49;;;;;;;;;6.00;4.00;;;;;12.17;78.93;100749.38;5016895;28;45281;-59
2022/12/24 02:17:20;;;;;;;;;6.33;4.00;;;;;12.20;79.11;100743.00;4999557;28;45346;-56
2022/12/24 02:20:06;;;;;;;;;9.67;6.00;;;;;12.18;79.15;100742.25;5017584;28;45465;-60
2022/12/24 02:22:53;;;;;;;;;9.00;4.67;;;;;12.19;79.05;100734.16;5016768;28;45451;-62
2022/12/24 02:25:46;;;;;;;;;4.00;4.00;;;;;12.18;79.27;100740.44;5016936;28;45284;-58
2022/12/24 02:28:19;;;;;;;;;1.00;1.00;;;;;12.14;79.20;100730.91;5017339;28;45406;-58
2022/12/24 02:30:54;;;;;;;;;5.33;5.33;;;;;12.19;79.05;100739.47;4999648;28;45899;-58
2022/12/24 02:33:33;;;;;;;;;10.00;3.00;;;;;12.18;78.79;100747.56;5017038;28;45444;-57
2022/12/24 02:36:10;;;;;;;;;7.67;5.33;;;;;12.16;78.99;100750.34;4998688;28;45364;-57
2022/12/24 02:38:54;;;;;;;;;6.67;3.00;;;;;12.15;79.32;100732.63;5017033;28;45321;-58
2022/12/24 02:42:04;;;;;;;;;5.33;3.00;;;;;12.16;79.22;100737.00;5017054;28;45385;-58
2022/12/24 02:44:15;;;;;;;;;10.67;4.00;;;;;12.17;78.98;100722.72;5016170;28;45455;-57
2022/12/24 02:46:40;;;;;;;;;8.67;6.33;;;;;12.18;79.42;100731.56;5016425;28;45284;-57
2022/12/24 02:49:05;;;;;;;;;13.00;6.67;;;;;12.18;78.99;100732.44;4982418;28;45202;-56
2022/12/24 02:51:31;;;;;;;;;7.00;6.00;;;;;12.18;79.25;100739.56;5016875;28;45707;-57
2022/12/24 02:53:58;;;;;;;;;7.67;6.00;;;;;12.19;79.29;100755.47;5016700;28;45596;-57
2022/12/24 02:56:29;;;;;;;;;11.67;7.00;;;;;12.21;79.22;100755.38;5016378;28;45419;-57
2022/12/24 02:59:13;;;;;;;;;14.00;7.00;;;;;12.18;79.32;100737.75;5016709;28;45364;-59
2022/12/24 03:01:56;;;;;;;;;10.67;4.33;;;;;12.20;79.45;100727.88;5016896;28;45471;-58
2022/12/24 03:04:39;;;;;;;;;13.00;6.00;;;;;12.22;79.51;100730.44;5016176;28;45991;-57
2022/12/24 03:07:24;;;;;;;;;5.00;3.00;;;;;12.26;79.04;100722.19;4998489;28;45349;-58
2022/12/24 03:10:16;;;;;;;;;6.00;3.00;;;;;12.26;79.21;100723.97;5016222;28;45295;-56
2022/12/24 03:12:45;;;;;;;;;8.67;5.33;;;;;12.17;79.22;100717.38;5016435;28;45275;-58
2022/12/24 03:15:15;;;;;;;;;10.00;6.00;;;;;12.23;79.10;100725.00;5015500;28;46392;-58
2022/12/24 03:17:45;;;;;;;;;10.00;6.33;;;;;12.22;79.42;100728.63;5015980;28;45258;-57
2022/12/24 03:20:14;;;;;;;;;5.67;4.33;;;;;12.24;78.72;100726.75;5016257;28;45413;-58
2022/12/24 03:22:40;;;;;;;;;8.33;4.00;;;;;12.25;78.78;100725.78;4998536;28;45359;-57
2022/12/24 03:25:06;;;;;;;;;6.67;6.67;;;;;12.27;78.97;100721.22;5015899;28;46374;-58
2022/12/24 03:27:34;;;;;;;;;12.33;6.00;;;;;12.24;79.26;100718.75;5016136;28;45400;-58
2022/12/24 03:30:02;;;;;;;;;7.00;2.33;;;;;12.23;78.73;100710.81;5016873;28;45341;-58
2022/12/24 03:32:29;;;;;;;;;8.33;5.33;;;;;12.26;78.92;100721.31;5016086;28;45471;-62
2022/12/24 03:34:55;;;;;;;;;6.67;4.00;;;;;12.24;79.06;100721.41;5015928;28;45323;-58
2022/12/24 03:37:21;;;;;;;;;9.00;7.00;;;;;12.25;79.13;100723.13;5015904;28;45320;-58
2022/12/24 03:39:46;;;;;;;;;7.33;6.00;;;;;12.24;79.15;100728.53;5016548;28;45393;-56
2022/12/24 03:42:12;;;;;;;;;8.00;5.00;;;;;12.24;79.36;100729.41;4998524;28;45527;-57
2022/12/24 03:44:37;;;;;;;;;6.00;4.00;;;;;12.21;79.10;100729.56;5015724;28;45299;-58
2022/12/24 03:47:02;;;;;;;;;7.00;5.00;;;;;12.20;79.24;100738.53;5015823;28;45431;-58
2022/12/24 03:49:28;;;;;;;;;10.00;4.67;;;;;12.21;79.43;100745.56;5016124;28;45418;-58
2022/12/24 03:51:53;;;;;;;;;8.00;6.33;;;;;12.22;79.15;100741.09;5016099;28;45518;-58
2022/12/24 03:54:19;;;;;;;;;5.00;4.00;;;;;12.21;79.26;100734.91;5015163;28;45336;-57
2022/12/24 03:56:44;;;;;;;;;9.00;7.00;;;;;12.23;79.45;100734.81;5017145;28;57392;-57
2022/12/24 03:59:09;;;;;;;;;7.00;4.00;;;;;12.23;79.40;100740.16;5019125;28;45414;-57
2022/12/24 04:01:35;;;;;;;;;10.33;8.33;;;;;12.16;78.86;100737.00;5019364;28;45501;-58
2022/12/24 04:04:00;;;;;;;;;9.33;4.67;;;;;12.16;79.55;100742.34;5018965;28;46242;-57
2022/12/24 04:06:26;;;;;;;;;10.33;4.00;;;;;12.18;79.35;100745.75;5019268;28;45276;-58
2022/12/24 04:08:51;;;;;;;;;10.33;4.67;;;;;12.09;79.52;100741.84;5019084;28;45299;-58
2022/12/24 04:11:17;;;;;;;;;8.00;4.00;;;;;12.15;79.47;100753.97;5032319;28;45414;-56
2022/12/24 04:13:42;;;;;;;;;12.67;6.33;;;;;12.16;79.43;100763.66;5038690;28;46279;-61
2022/12/24 04:16:12;;;;;;;;;4.00;4.00;;;;;12.11;79.68;100755.09;5038965;28;45210;-58
2022/12/24 04:18:39;;;;;;;;;11.33;5.67;;;;;12.12;79.68;100762.16;5039299;28;45554;-57
2022/12/24 04:21:05;;;;;;;;;9.00;7.67;;;;;12.12;79.69;100767.47;5039084;28;45572;-57
2022/12/24 04:23:33;;;;;;;;;4.00;3.00;;;;;12.13;79.73;100763.00;5038724;28;47439;-57
2022/12/24 04:26:02;;;;;;;;;6.33;2.33;;;;;12.13;79.53;100774.53;5038775;28;45165;-57
2022/12/24 04:28:29;;;;;;;;;6.33;4.00;;;;;12.10;79.80;100772.00;5038697;28;45378;-58
2022/12/24 04:31:02;;;;;;;;;9.33;3.00;;;;;12.15;79.70;100775.28;5038618;28;45257;-58
2022/12/24 04:33:28;;;;;;;;;6.00;3.33;;;;;12.14;79.60;100778.03;5038459;28;45346;-57
2022/12/24 04:35:53;;;;;;;;;5.33;5.33;;;;;12.14;79.75;100786.91;5038519;28;45472;-57
2022/12/24 04:38:18;;;;;;;;;11.33;5.00;;;;;12.14;79.60;100797.56;5038853;28;45381;-58
2022/12/24 04:40:44;;;;;;;;;14.00;4.00;;;;;12.16;79.77;100785.00;5038407;28;45489;-58
2022/12/24 04:43:09;;;;;;;;;7.00;5.33;;;;;12.06;79.60;100774.00;5038414;28;46018;-58
2022/12/24 04:45:35;;;;;;;;;5.33;3.33;;;;;12.10;79.75;100785.34;5038370;28;46287;-56
2022/12/24 04:48:00;;;;;;;;;7.67;2.33;;;;;12.14;79.46;100796.72;5038364;28;45478;-58
2022/12/24 04:50:25;;;;;;;;;7.00;4.00;;;;;12.00;79.60;100769.06;5038952;28;45489;-57
2022/12/24 04:52:51;;;;;;;;;8.67;3.00;;;;;12.09;79.62;100783.63;5020878;28;45395;-57
2022/12/24 04:55:16;;;;;;;;;9.33;6.33;;;;;12.13;79.19;100787.00;5038344;28;45383;-57
2022/12/24 04:57:42;;;;;;;;;7.67;5.00;;;;;12.13;79.68;100790.53;5038288;28;45571;-58
2022/12/24 05:00:08;;;;;;;;;8.67;6.67;;;;;12.10;79.46;100780.00;5020730;28;45418;-57
2022/12/24 05:02:33;;;;;;;;;8.67;7.00;;;;;12.13;79.74;100784.34;5038148;28;46108;-59
2022/12/24 05:04:59;;;;;;;;;5.67;2.00;;;;;12.09;79.40;100783.63;5038094;28;45338;-55
2022/12/24 05:07:24;;;;;;;;;17.00;5.67;;;;;12.13;79.50;100801.19;5036960;28;60421;-57
2022/12/24 05:09:49;;;;;;;;;8.33;3.00;;;;;12.15;79.52;100799.28;5037931;28;45491;-58
2022/12/24 05:12:15;;;;;;;;;9.00;6.33;;;;;12.17;79.38;100802.72;5018234;28;45333;-57
2022/12/24 05:14:40;;;;;;;;;10.33;5.67;;;;;12.19;79.28;100799.94;5018102;28;45259;-58
2022/12/24 05:17:05;;;;;;;;;7.00;1.67;;;;;12.10;79.25;100791.53;5018372;28;45381;-58
2022/12/24 05:19:31;;;;;;;;;8.33;4.33;;;;;12.14;79.41;100792.22;5018415;28;45420;-57
2022/12/24 05:27:25;;;;;;;;;7.67;6.00;;;;;12.17;79.87;100797.38;5018222;28;45324;-57
2022/12/24 05:29:50;;;;;;;;;9.00;6.00;;;;;12.18;80.15;100787.56;5019174;28;45240;-58
2022/12/24 05:32:16;;;;;;;;;8.33;5.33;;;;;12.10;79.96;100775.53;5018826;28;46294;-57
2022/12/24 05:34:41;;;;;;;;;14.00;6.00;;;;;12.08;80.19;100772.13;5018914;28;45165;-57
2022/12/24 05:37:06;;;;;;;;;9.33;6.00;;;;;12.13;80.52;100779.84;4999948;28;45191;-58
2022/12/24 05:39:32;;;;;;;;;8.00;4.00;;;;;12.09;80.78;100776.50;5018208;28;45550;-57
2022/12/24 05:41:57;;;;;;;;;7.00;3.33;;;;;12.10;81.13;100774.69;4999712;28;46230;-57
2022/12/24 05:44:22;;;;;;;;;8.33;3.00;;;;;12.12;80.97;100775.47;5018140;28;45365;-57
2022/12/24 05:46:48;;;;;;;;;8.67;4.33;;;;;12.12;81.46;100778.16;5017934;28;45287;-57
2022/12/24 05:49:13;;;;;;;;;4.67;2.00;;;;;12.12;81.74;100775.47;5000312;28;45452;-57
2022/12/24 05:51:40;;;;;;;;;6.33;3.67;;;;;12.14;81.54;100776.25;5017440;28;45352;-57
2022/12/24 05:54:05;;;;;;;;;8.67;5.33;;;;;12.05;81.60;100755.44;4983121;28;45402;-57
2022/12/24 05:56:31;;;;;;;;;6.00;2.33;;;;;12.11;81.94;100765.75;5017673;28;45375;-57
2022/12/24 05:58:57;;;;;;;;;8.00;6.00;;;;;12.08;82.35;100765.91;5018136;28;45415;-58
2022/12/24 06:01:23;;;;;;;;;4.00;3.00;;;;;12.03;82.84;100760.00;5017468;28;45915;-57
2022/12/24 06:03:50;;;;;;;;;9.67;6.67;;;;;11.98;83.00;100759.41;4999716;28;45347;-57
2022/12/24 06:06:22;;;;;;;;;15.33;5.33;;;;;12.05;82.78;100769.63;5017680;28;45441;-57
2022/12/24 06:08:49;;;;;;;;;8.67;7.00;;;;;12.05;82.94;100780.28;5016895;28;45453;-57
2022/12/24 06:11:16;;;;;;;;;12.00;7.33;;;;;12.01;82.71;100764.59;5029449;28;45835;-57
2022/12/24 06:13:42;;;;;;;;;10.67;4.00;;;;;12.01;83.27;100769.91;5037407;28;45254;-58
2022/12/24 06:16:12;;;;;;;;;7.33;5.67;;;;;12.02;82.95;100772.50;5037193;28;45270;-57
2022/12/24 06:18:37;;;;;;;;;3.33;3.33;;;;;12.02;83.24;100772.50;5036349;28;45870;-57
2022/12/24 06:21:04;;;;;;;;;7.33;4.00;;;;;12.01;83.05;100785.91;5036115;28;45869;-58
2022/12/24 06:23:31;;;;;;;;;12.33;4.00;;;;;12.01;83.02;100783.25;5036955;28;45400;-57
2022/12/24 06:25:59;;;;;;;;;8.67;6.67;;;;;11.92;83.24;100779.31;5036870;28;45352;-57
2022/12/24 06:28:26;;;;;;;;;9.33;7.33;;;;;12.00;82.83;100785.06;5036653;28;45264;-59
2022/12/24 06:30:51;;;;;;;;;8.00;7.00;;;;;12.01;82.53;100772.59;5036755;28;46186;-58
2022/12/24 06:33:17;;;;;;;;;5.33;4.33;;;;;12.01;82.15;100785.91;5036949;28;45348;-58
2022/12/24 06:35:44;;;;;;;;;10.00;4.00;;;;;11.98;82.59;100780.72;5036923;28;45353;-58
2022/12/24 06:38:10;;;;;;;;;7.67;6.33;;;;;11.96;82.30;100775.50;5037221;28;45496;-59
2022/12/24 06:40:37;;;;;;;;;7.33;6.33;;;;;11.96;82.74;100772.84;5036836;28;46355;-57
2022/12/24 06:43:02;;;;;;;;;13.67;5.33;;;;;11.90;82.58;100761.69;5036958;28;45343;-57
2022/12/24 06:45:28;;;;;;;;;4.00;4.00;;;;;11.97;82.27;100765.69;5037514;28;45311;-58
2022/12/24 06:47:53;;;;;;;;;6.67;3.00;;;;;11.91;82.35;100758.06;5037064;28;45368;-58
2022/12/24 06:50:19;;;;;;;;;6.33;3.00;;;;;11.97;82.14;100760.38;5036708;28;45504;-58
2022/12/24 06:52:44;;;;;;;;;6.00;3.33;;;;;11.99;82.16;100761.16;5037104;28;45376;-59
2022/12/24 06:55:09;;;;;;;;;7.00;5.00;;;;;11.99;81.72;100771.81;5037433;28;45418;-57
2022/12/24 06:57:35;;;;;;;;;9.00;4.00;;;;;11.93;81.46;100761.50;5037465;28;45394;-61
2022/12/24 07:00:00;;;;;;;;;3.00;3.00;;;;;11.95;81.33;100775.59;5036773;28;45875;-58
2022/12/24 07:02:26;;;;;;;;;6.00;4.00;;;;;11.95;81.33;100764.94;5036685;28;45395;-58
2022/12/24 07:04:51;;;;;;;;;7.33;1.00;;;;;11.94;81.47;100771.22;5018646;28;45392;-57
2022/12/24 07:07:16;;;;;;;;;8.33;2.33;;;;;11.93;81.21;100785.50;5036780;28;45308;-57
2022/12/24 07:09:42;;;;;;;;;7.00;3.00;;;;;11.88;81.39;100763.59;5036366;28;45336;-57
2022/12/24 07:12:07;;;;;;;;;3.33;2.33;;;;;11.92;81.27;100770.44;5001853;28;45980;-58
2022/12/24 07:14:33;;;;;;;;;2.00;2.00;;;;;11.89;81.07;100773.31;5036730;28;45504;-57
2022/12/24 07:16:58;;;;;;;;;2.00;2.00;;;;;11.92;80.95;100773.13;5037329;28;45214;-58
2022/12/24 07:19:24;;;;;;;;;2.67;1.00;;;;;11.91;80.87;100785.59;5018608;28;46322;-58
2022/12/24 07:21:49;;;;;;;;;4.00;1.00;;;;;11.92;80.89;100791.78;5036374;28;45241;-57
2022/12/24 07:24:15;;;;;;;;;3.00;3.00;;;;;11.93;80.47;100798.81;5035738;28;45426;-58
2022/12/24 07:26:41;;;;;;;;;3.00;2.00;;;;;11.91;80.75;100795.38;5036920;28;45163;-58
2022/12/24 07:29:06;;;;;;;;;4.00;3.00;;;;;11.89;80.31;100786.63;5036556;28;46225;-59
2022/12/24 07:31:32;;;;;;;;;1.67;1.00;;;;;11.85;80.37;100785.06;5036520;28;45332;-56
2022/12/24 07:33:57;;;;;;;;;5.33;3.00;;;;;11.89;80.36;100787.47;5037092;28;45242;-57
2022/12/24 07:36:23;;;;;;;;;6.00;1.67;;;;;11.83;80.33;100787.81;5019327;28;45554;-57
2022/12/24 07:38:48;;;;;;;;;2.00;2.00;;;;;11.86;80.17;100793.00;5036666;28;46249;-56
2022/12/24 07:41:14;;;;;;;;;4.33;1.00;;;;;11.87;80.22;100796.53;5036565;28;45426;-58
2022/12/24 07:43:39;;;;;;;;;2.33;1.33;;;;;11.87;79.60;100805.38;5036522;28;45346;-57
2022/12/24 07:46:05;;;;;;;;;4.00;3.00;;;;;11.90;79.79;100810.53;5036811;28;45416;-58
2022/12/24 07:48:31;;;;;;;;;5.33;3.33;;;;;11.92;80.12;100811.28;5036390;28;47659;-57
2022/12/24 07:50:58;;;;;;;;;3.67;1.00;;;;;11.93;79.70;100814.81;5036274;28;45400;-57
2022/12/24 07:53:26;;;;;;;;;0.00;0.00;;;;;11.89;79.58;100808.81;5036333;28;45298;-58
2022/12/24 07:55:51;;;;;;;;;1.67;0.67;;;;;11.91;79.49;100812.25;5018651;28;45350;-57
2022/12/24 07:58:17;;;;;;;;;1.67;1.00;;;;;11.94;79.72;100806.72;5035893;28;45585;-58
2022/12/24 08:00:43;;;;;;;;;1.33;1.00;;;;;11.93;79.61;100820.13;5036181;28;45264;-58
2022/12/24 08:03:16;;;;;;;;;2.00;2.00;;;;;11.77;79.13;100789.03;5036723;28;45342;-57
2022/12/24 08:05:41;;;;;;;;;3.33;2.00;;;;;11.94;79.42;100817.38;5037424;28;45236;-59
2022/12/24 08:08:07;;;;;;;;;2.33;2.33;;;;;11.97;79.20;100822.53;5002729;28;46127;-58
2022/12/24 08:10:32;;;;;;;;;3.33;2.00;;;;;12.02;79.47;100820.47;5036182;28;45225;-57
2022/12/24 08:13:05;;;;;;;;;3.33;3.00;;;;;12.03;79.11;100829.31;5035921;28;45327;-58
2022/12/24 08:15:31;;;;;;;;;3.00;1.00;;;;;12.06;79.05;100826.47;5017954;28;45351;-58
2022/12/24 08:17:57;;;;;;;;;2.33;2.00;;;;;12.01;78.96;100817.91;5050979;28;46943;-58
2022/12/24 08:20:22;;;;;;;;;1.67;1.67;;;;;12.09;78.93;100835.13;5035657;28;45218;-57
2022/12/24 08:22:47;;;;;;;;;0.00;0.00;;;;;11.98;78.94;100812.72;5035937;28;45370;-61
2022/12/24 08:25:13;;;;;;;;;3.33;3.33;;;;;11.99;78.48;100830.47;5001207;28;45325;-58
2022/12/24 08:27:38;;;;;;;;;2.00;2.00;;;;;11.97;79.15;100821.66;5034818;28;57277;-57
2022/12/24 08:30:05;;;;;;;;;1.00;1.00;;;;;12.11;78.74;100845.75;5035311;28;45326;-57
2022/12/24 08:32:30;;;;;;;;;2.67;2.00;;;;;12.13;78.54;100846.50;5035697;28;45869;-61
2022/12/24 08:34:55;;;;;;;;;3.00;1.00;;;;;12.09;78.08;100844.94;5035664;28;45815;-57
2022/12/24 08:37:21;;;;;;;;;1.67;1.00;;;;;12.13;78.50;100859.84;5016821;28;45629;-56
2022/12/24 08:39:47;;;;;;;;;2.00;1.00;;;;;12.17;78.58;100865.84;5034935;28;45323;-57
2022/12/24 08:42:12;;;;;;;;;6.00;2.00;;;;;12.05;78.71;100830.94;5035894;28;45446;-57
2022/12/24 08:44:37;;;;;;;;;2.33;1.00;;;;;12.15;78.57;100863.28;5020506;28;45431;-57
2022/12/24 08:47:03;;;;;;;;;2.00;0.00;;;;;12.13;78.17;100870.50;5038324;28;50060;-57
2022/12/24 08:49:28;;;;;;;;;7.00;2.00;;;;;12.19;77.98;100871.94;5038347;28;45419;-57
2022/12/24 08:51:54;;;;;;;;;4.00;2.00;;;;;12.15;78.37;100862.41;5039092;28;45375;-58
2022/12/24 08:54:21;;;;;;;;;1.00;1.00;;;;;12.17;77.97;100876.50;5038778;28;45587;-58
2022/12/24 08:56:46;;;;;;;;;2.00;0.00;;;;;12.14;78.90;100871.34;5038759;28;46227;-58
2022/12/24 08:59:12;;;;;;;;;2.00;2.00;;;;;12.16;78.20;100883.66;5020428;28;45346;-57
2022/12/24 09:01:37;;;;;;;;;0.67;0.67;;;;;12.16;78.74;100896.13;5020559;28;45256;-57
2022/12/24 09:04:03;;;;;;;;;10.00;2.50;;;;;12.17;78.70;100897.84;5038809;28;45325;-57
2022/12/24 09:06:28;;;;;;;;;10.00;1.00;;;;;12.17;78.63;100901.38;5020281;28;45263;-58
2022/12/24 09:08:54;;;;;;;;;1.00;1.00;;;;;12.17;78.58;100900.50;5020184;28;45390;-58
2022/12/24 09:11:19;;;;;;;;;6.00;1.33;;;;;12.19;78.24;100901.28;5037773;28;45508;-57
2022/12/24 09:13:46;;;;;;;;;1.33;1.33;;;;;12.15;78.58;100910.41;5038604;28;45391;-57
2022/12/24 09:16:12;;;;;;;;;3.00;1.67;;;;;12.12;78.41;100924.78;5037934;28;45794;-58
2022/12/24 09:18:38;;;;;;;;;3.00;2.00;;;;;12.08;78.89;100915.22;5038247;28;45443;-59
2022/12/24 09:21:18;;;;;;;;;4.00;3.33;;;;;12.19;78.32;100915.47;5038699;28;45382;-57
2022/12/24 09:23:46;;;;;;;;;1.00;1.00;;;;;12.14;78.18;100903.34;5038312;28;45540;-58
2022/12/24 09:26:16;;;;;;;;;2.00;1.00;;;;;12.24;78.29;100925.84;5037565;28;46885;-58
2022/12/24 09:28:42;;;;;;;;;7.00;2.00;;;;;12.25;78.09;100933.78;5037540;28;45363;-58
2022/12/24 09:31:10;;;;;;;;;5.33;2.00;;;;;12.26;78.51;100938.19;5038037;28;45316;-56
2022/12/24 09:33:38;;;;;;;;;2.67;2.67;;;;;12.23;77.86;100930.31;5038259;28;45383;-59
2022/12/24 09:36:04;;;;;;;;;1.67;1.00;;;;;12.22;78.25;100923.28;5037786;28;45436;-58
2022/12/24 09:38:30;;;;;;;;;3.67;1.00;;;;;12.23;78.01;100935.66;5037565;28;45200;-58
2022/12/24 09:40:57;;;;;;;;;3.67;2.00;;;;;12.26;78.28;100943.50;5037857;28;45368;-56
2022/12/24 09:43:25;;;;;;;;;1.00;1.00;;;;;12.20;78.02;100935.84;5037996;28;45357;-58
2022/12/24 09:46:21;;;;;;;;;2.33;2.00;;;;;12.27;77.91;100944.38;5018824;28;47258;-58
2022/12/24 09:48:51;;;;;;;;;3.33;3.00;;;;;12.25;78.35;100947.13;5019398;28;45549;-57
2022/12/24 09:51:35;;;;;;;;;4.00;2.00;;;;;12.28;78.01;100944.28;5037456;28;45373;-57
2022/12/24 09:54:08;;;;;;;;;1.00;1.00;;;;;12.28;77.90;100933.59;5037496;28;45217;-58
2022/12/24 09:56:39;;;;;;;;;3.00;2.00;;;;;12.30;78.19;100930.84;5037645;28;46818;-57
2022/12/24 09:59:12;;;;;;;;;3.00;1.33;;;;;12.33;78.08;100928.84;5038157;28;45295;-58
2022/12/24 10:01:37;;;;;;;;;4.00;1.00;;;;;12.34;78.13;100938.56;5037706;28;45356;-58
2022/12/24 10:04:15;;;;;;;;;2.33;1.00;;;;;12.36;77.45;100939.34;5037346;28;45241;-57
2022/12/24 10:06:59;;;;;;;;;1.67;1.00;;;;;12.33;78.08;100926.19;5037334;28;45377;-57
2022/12/24 10:09:35;;;;;;;;;1.33;1.00;;;;;12.45;78.09;100937.09;5037157;28;45285;-57
2022/12/24 10:12:17;;;;;;;;;2.00;2.00;;;;;12.47;78.28;100930.72;5018505;28;45452;-57
2022/12/24 10:14:54;;;;;;;;;3.00;1.00;;;;;12.49;78.08;100930.63;5017378;28;45347;-63
2022/12/24 10:17:35;;;;;;;;;1.00;1.00;;;;;12.53;78.10;100937.53;5017126;28;45445;-58
2022/12/24 10:20:24;;;;;;;;;3.00;1.33;;;;;12.57;77.68;100941.72;4999623;28;45693;-58
2022/12/24 10:23:05;;;;;;;;;5.00;2.00;;;;;12.60;77.53;100936.19;5006327;28;45376;-58
2022/12/24 10:25:30;;;;;;;;;7.67;2.00;;;;;12.59;77.96;100937.16;5017722;28;45295;-58
2022/12/24 10:28:00;;;;;;;;;1.00;1.00;;;;;12.59;77.74;100937.16;5017120;28;45849;-58
2022/12/24 10:30:25;;;;;;;;;1.00;1.00;;;;;12.62;77.39;100936.97;5017020;28;45471;-62
2022/12/24 10:32:52;;;;;;;;;2.33;2.00;;;;;12.64;77.59;100940.41;5016847;28;45324;-56
2022/12/24 10:35:44;;;;;;;;;1.00;1.00;;;;;12.61;77.09;100937.91;5017105;28;45365;-58
2022/12/24 10:38:09;;;;;;;;;2.33;2.00;;;;;12.63;76.49;100939.56;5000571;28;45656;-64
2022/12/24 10:40:43;;;;;;;;;2.67;2.00;;;;;12.58;76.94;100930.09;5016704;28;45468;-57
2022/12/24 10:43:17;;;;;;;;;2.00;2.00;;;;;12.70;77.76;100934.69;5017184;28;45241;-56
2022/12/24 10:45:47;;;;;;;;;2.33;2.00;;;;;12.67;76.70;100924.22;5016612;28;45561;-60
2022/12/24 10:48:24;;;;;;;;;1.33;1.00;;;;;12.73;76.90;100937.19;5016572;28;46164;-56
2022/12/24 10:51:20;;;;;;;;;3.00;1.00;;;;;12.74;76.98;100938.03;5016345;28;45224;-58
2022/12/24 10:54:12;;;;;;;;;3.00;1.67;;;;;12.73;76.86;100939.84;4981911;28;45335;-58
2022/12/24 10:56:43;;;;;;;;;3.33;2.67;;;;;12.78;77.22;100951.13;5016769;28;45435;-58
2022/12/24 10:59:42;;;;;;;;;5.33;2.67;;;;;12.78;76.97;100932.44;5016570;28;45240;-57
2022/12/24 11:02:30;;;;;;;;;5.33;1.00;;;;;12.79;76.82;100936.84;4997969;28;45494;-57
2022/12/24 11:04:58;;;;;;;;;4.00;1.00;;;;;12.80;76.92;100935.88;5016178;28;45260;-57
2022/12/24 11:07:23;;;;;;;;;1.00;1.00;;;;;12.75;76.36;100927.28;5016768;28;45475;-58
2022/12/24 11:09:56;;;;;;;;;3.00;1.00;;;;;12.81;76.51;100926.91;5016548;28;46187;-56
2022/12/24 11:12:26;;;;;;;;;0.00;0.00;;;;;12.81;75.83;100928.72;5036178;28;45281;-58
2022/12/24 11:15:26;;;;;;;;;3.67;3.67;;;;;12.78;76.32;100915.59;5035990;28;45434;-59
2022/12/24 11:18:03;;;;;;;;;4.00;1.00;;;;;12.87;76.43;100921.19;5033228;28;45357;-57
2022/12/24 11:20:32;;;;;;;;;1.00;1.00;;;;;12.87;75.85;100925.69;5036238;28;45296;-57
2022/12/24 11:22:57;;;;;;;;;2.00;2.00;;;;;12.89;75.81;100926.44;5018187;28;45471;-57
2022/12/24 11:25:30;;;;;;;;;4.00;1.00;;;;;12.92;76.05;100908.44;5021559;28;45460;-57
2022/12/24 11:28:08;;;;;;;;;1.67;0.33;;;;;12.92;76.26;100908.44;4999323;28;45502;-57
2022/12/24 11:30:35;;;;;;;;;2.33;1.00;;;;;12.89;75.88;100900.63;4998061;28;45717;-57
2022/12/24 11:33:00;;;;;;;;;4.00;2.00;;;;;12.96;76.20;100915.31;5015897;28;45241;-57
2022/12/24 11:35:28;;;;;;;;;2.33;2.00;;;;;13.03;75.95;100922.97;4998190;28;45314;-58
2022/12/24 11:37:59;;;;;;;;;3.00;2.00;;;;;13.09;75.76;100911.91;5016295;28;45472;-58
2022/12/24 11:40:33;;;;;;;;;3.00;2.00;;;;;13.13;75.33;100924.09;5016039;28;45444;-58
2022/12/24 11:43:00;;;;;;;;;1.00;1.00;;;;;13.13;75.90;100922.28;5015989;28;45413;-58